createdAt,value
2019-04-22T00:01:16.419Z,68.50
2019-04-22T00:03:47.481Z,68.80
2019-04-22T00:06:30.964Z,68.20
2019-04-22T00:09:11.195Z,68.30
2019-04-22T00:11:36.969Z,69.10
2019-04-22T00:14:20.429Z,69.60
2019-04-22T00:16:48.762Z,69.60
2019-04-22T00:19:15.341Z,69.10
2019-04-22T00:21:40.438Z,69.20
2019-04-22T00:24:12.102Z,69.50
2019-04-22T00:26:48.452Z,68.60
2019-04-22T00:29:34.300Z,68.20
2019-04-22T00:31:58.994Z,67.80
2019-04-22T00:34:35.955Z,68.10
2019-04-22T00:37:13.367Z,67.70
2019-04-22T00:39:42.658Z,67.40
2019-04-22T00:42:08.108Z,67.50
2019-04-22T00:47:21.234Z,69.10
2019-04-22T00:54:49.590Z,71.20
2019-04-22T00:57:15.630Z,72.50
2019-04-22T00:59:45.798Z,71.10
2019-04-22T01:02:16.450Z,72.20
2019-04-22T01:04:49.033Z,72.60
2019-04-22T01:07:17.719Z,72.80
2019-04-22T01:09:52.159Z,74.50
2019-04-22T01:12:24.479Z,74.50
2019-04-22T01:15:07.497Z,74.80
2019-04-22T01:17:40.270Z,75.80
2019-04-22T01:20:25.827Z,74.10
2019-04-22T01:22:42.430Z,75.30
2019-04-22T01:25:08.827Z,75.00
2019-04-22T01:27:37.832Z,74.90
2019-04-22T01:30:06.645Z,75.60
2019-04-22T01:32:31.072Z,75.20
2019-04-22T01:35:09.817Z,75.00
2019-04-22T01:37:46.008Z,75.50
2019-04-22T01:40:24.115Z,75.30
2019-04-22T01:42:56.000Z,76.00
2019-04-22T01:45:26.453Z,75.10
2019-04-22T01:47:49.246Z,75.60
2019-04-22T01:50:26.512Z,76.30
2019-04-22T01:53:02.049Z,76.60
2019-04-22T01:57:53.923Z,76.40
2019-04-22T02:00:32.493Z,76.20
2019-04-22T02:02:59.687Z,76.50
2019-04-22T02:05:28.654Z,75.90
2019-04-22T02:08:11.263Z,76.50
2019-04-22T02:10:35.996Z,76.10
2019-04-22T02:13:01.509Z,75.60
2019-04-22T02:15:36.289Z,75.60
2019-04-22T02:18:12.018Z,75.30
2019-04-22T02:20:37.600Z,75.90
2019-04-22T02:23:47.310Z,75.60
2019-04-22T02:26:09.434Z,76.10
2019-04-22T02:31:29.278Z,76.40
2019-04-22T02:36:19.311Z,77.20
2019-04-22T02:44:02.079Z,77.60
2019-04-22T02:46:40.737Z,78.00
2019-04-22T02:49:04.103Z,78.40
2019-04-22T02:56:27.616Z,78.80
2019-04-22T03:09:01.238Z,79.00
2019-04-22T03:11:26.934Z,79.80
2019-04-22T03:19:05.872Z,78.90
2019-04-22T03:21:23.907Z,79.10
2019-04-22T03:26:32.025Z,78.00
2019-04-22T03:28:58.693Z,78.80
2019-04-22T03:39:37.689Z,80.10
2019-04-22T03:47:19.407Z,78.30
2019-04-22T03:57:33.460Z,80.20
2019-04-22T03:59:46.011Z,80.40
2019-04-22T04:04:36.857Z,80.40
2019-04-22T04:07:20.162Z,80.90
2019-04-22T04:12:20.729Z,82.00
2019-04-22T04:14:50.842Z,83.20
2019-04-22T04:19:43.771Z,83.80
2019-04-22T04:22:27.004Z,81.50
2019-04-22T04:24:53.931Z,83.40
2019-04-22T04:27:43.152Z,82.90
2019-04-22T04:29:54.746Z,83.70
2019-04-22T04:32:28.863Z,83.20
2019-04-22T04:37:33.111Z,83.30
2019-04-22T04:39:55.129Z,83.40
2019-04-22T04:47:32.127Z,81.60
2019-04-22T04:49:52.906Z,83.00
2019-04-22T04:52:27.709Z,83.50
2019-04-22T04:57:31.180Z,83.80
2019-04-22T05:00:35.095Z,83.60
2019-04-22T05:05:08.343Z,84.10
2019-04-22T05:09:55.093Z,83.10
2019-04-22T05:12:34.057Z,83.30
2019-04-22T05:14:59.903Z,82.40
2019-04-22T05:17:25.677Z,80.80
2019-04-22T05:19:56.856Z,81.40
2019-04-22T05:22:24.350Z,79.10
2019-04-22T05:24:53.714Z,78.30
2019-04-22T05:27:32.202Z,76.10
2019-04-22T05:30:08.811Z,74.60
2019-04-22T05:32:24.623Z,75.50
2019-04-22T05:34:52.807Z,74.80
2019-04-22T05:37:30.988Z,73.10
2019-04-22T05:39:49.616Z,71.10
2019-04-22T05:42:39.460Z,68.20
2019-04-22T05:44:55.000Z,67.70
2019-04-22T05:47:26.162Z,66.20
2019-04-22T05:49:54.575Z,68.50
2019-04-22T05:52:24.934Z,66.60
2019-04-22T05:55:02.974Z,64.40
2019-04-22T05:57:45.664Z,63.80
2019-04-22T06:00:06.379Z,61.90
2019-04-22T06:05:07.051Z,61.00
2019-04-22T06:07:36.879Z,61.40
2019-04-22T06:10:15.833Z,61.30
2019-04-22T06:12:35.704Z,62.00
2019-04-22T06:15:23.342Z,58.90
2019-04-22T06:17:49.295Z,58.20
2019-04-22T06:20:09.444Z,57.00
2019-04-22T06:25:23.063Z,56.60
2019-04-22T06:27:52.381Z,55.50
2019-04-22T06:30:23.292Z,55.70
2019-04-22T06:32:46.877Z,55.40
2019-04-22T06:35:33.782Z,55.80
2019-04-22T06:38:14.550Z,55.10
2019-04-22T06:40:24.821Z,54.60
2019-04-22T06:45:23.452Z,53.60
2019-04-22T06:48:01.993Z,53.40
2019-04-22T06:50:27.749Z,53.80
2019-04-22T06:52:54.560Z,52.80
2019-04-22T06:55:29.832Z,52.40
2019-04-22T06:57:51.144Z,52.50
2019-04-22T07:00:24.624Z,51.80
2019-04-22T07:03:19.993Z,51.70
2019-04-22T07:05:27.587Z,50.10
2019-04-22T07:08:05.547Z,48.90
2019-04-22T07:12:58.688Z,48.60
2019-04-22T07:15:42.411Z,48.20
2019-04-22T07:18:03.070Z,48.60
2019-04-22T07:20:30.518Z,47.90
2019-04-22T07:23:01.937Z,46.90
2019-04-22T07:25:31.855Z,45.30
2019-04-22T07:28:02.058Z,45.00
2019-04-22T07:30:35.014Z,43.70
2019-04-22T07:33:24.799Z,43.60
2019-04-22T07:35:36.273Z,43.70
2019-04-22T07:38:10.808Z,43.00
2019-04-22T07:40:38.944Z,41.70
2019-04-22T07:43:14.931Z,42.20
2019-04-22T07:45:47.838Z,40.60
2019-04-22T07:48:21.902Z,38.80
2019-04-22T07:50:50.648Z,38.50
2019-04-22T07:53:14.338Z,37.20
2019-04-22T07:55:40.264Z,35.90
2019-04-22T07:58:11.895Z,35.80
2019-04-22T08:03:19.074Z,34.80
2019-04-22T08:05:52.239Z,34.30
2019-04-22T08:08:23.092Z,32.80
2019-04-22T08:10:48.468Z,31.90
2019-04-22T08:13:19.669Z,31.40
2019-04-22T08:18:19.358Z,30.00
2019-04-22T08:20:47.162Z,29.10
2019-04-22T08:23:24.520Z,29.00
2019-04-22T08:25:49.520Z,28.80
2019-04-22T08:28:28.901Z,28.90
2019-04-22T08:30:55.075Z,27.90
2019-04-22T08:33:29.390Z,27.20
2019-04-22T08:36:06.883Z,27.00
2019-04-22T08:38:36.784Z,27.30
2019-04-22T08:44:01.245Z,26.50
2019-04-22T08:46:23.617Z,24.70
2019-04-22T08:48:51.608Z,25.50
2019-04-22T08:51:21.030Z,24.60
2019-04-22T08:53:57.238Z,25.40
2019-04-22T08:56:29.352Z,24.10
2019-04-22T08:58:56.990Z,23.90
2019-04-22T09:01:23.860Z,24.70
2019-04-22T09:03:52.440Z,24.10
2019-04-22T09:06:39.232Z,24.40
2019-04-22T09:08:54.063Z,23.50
2019-04-22T09:11:26.978Z,23.60
2019-04-22T09:13:58.678Z,23.60
2019-04-22T09:16:33.321Z,23.90
2019-04-22T09:21:38.963Z,23.00
2019-04-22T09:23:58.396Z,23.20
2019-04-22T09:26:30.597Z,22.00
2019-04-22T09:28:59.502Z,22.30
2019-04-22T09:31:28.984Z,21.60
2019-04-22T09:33:53.706Z,21.10
2019-04-22T09:39:00.646Z,20.60
2019-04-22T09:41:33.339Z,20.70
2019-04-22T09:46:34.541Z,19.80
2019-04-22T09:49:06.874Z,21.20
2019-04-22T09:51:31.136Z,20.90
2019-04-22T09:54:20.186Z,20.70
2019-04-22T09:56:37.485Z,19.80
2019-04-22T09:59:05.604Z,20.00
2019-04-22T10:01:38.447Z,19.60
2019-04-22T10:04:06.955Z,19.20
2019-04-22T10:06:45.671Z,19.70
2019-04-22T10:11:39.157Z,20.50
2019-04-22T10:14:28.437Z,19.10
2019-04-22T10:16:43.550Z,19.80
2019-04-22T10:19:12.351Z,19.30
2019-04-22T10:21:44.684Z,18.90
2019-04-22T10:24:11.383Z,18.60
2019-04-22T10:31:44.357Z,17.70
2019-04-22T10:34:05.827Z,17.20
2019-04-22T10:36:21.354Z,17.90
2019-04-22T10:38:50.703Z,17.90
2019-04-22T10:41:20.699Z,16.40
2019-04-22T10:43:50.935Z,16.30
2019-04-22T10:46:20.014Z,16.30
2019-04-22T10:48:50.039Z,16.10
2019-04-22T10:51:19.152Z,16.10
2019-04-22T10:53:49.223Z,16.30
2019-04-22T10:56:18.893Z,16.70
2019-04-22T10:58:48.950Z,16.70
2019-04-22T11:01:17.957Z,16.60
2019-04-22T11:03:46.738Z,18.30
2019-04-22T11:06:17.156Z,17.40
2019-04-22T11:08:52.434Z,17.00
2019-04-22T11:11:37.548Z,16.00
2019-04-22T11:13:56.041Z,15.10
2019-04-22T11:16:25.729Z,15.80
2019-04-22T11:18:55.864Z,15.50
2019-04-22T11:21:25.427Z,15.00
2019-04-22T11:23:54.618Z,15.40
2019-04-22T11:26:24.063Z,15.50
2019-04-22T11:28:53.950Z,14.80
2019-04-22T11:31:24.155Z,14.30
2019-04-22T11:33:54.452Z,14.80
2019-04-22T11:36:26.855Z,14.20
2019-04-22T11:39:00.148Z,13.40
2019-04-22T11:41:25.617Z,13.70
2019-04-22T11:43:54.494Z,13.90
2019-04-22T11:46:25.319Z,15.20
2019-04-22T11:48:54.347Z,13.90
2019-04-22T11:51:24.352Z,14.70
2019-04-22T11:53:54.569Z,14.80
2019-04-22T11:56:25.059Z,14.60
2019-04-22T11:58:55.151Z,15.30
2019-04-22T12:01:39.306Z,14.40
2019-04-22T12:04:09.698Z,13.80
2019-04-22T12:06:39.938Z,14.10
2019-04-22T12:09:12.495Z,14.00
2019-04-22T12:11:41.512Z,14.30
2019-04-22T12:14:11.697Z,13.80
2019-04-22T12:16:41.386Z,14.10
2019-04-22T12:19:11.413Z,13.50
2019-04-22T12:21:41.574Z,13.70
2019-04-22T12:24:10.954Z,14.00
2019-04-22T12:26:40.125Z,14.60
2019-04-22T12:29:09.150Z,14.30
2019-04-22T12:31:38.017Z,14.30
2019-04-22T12:34:07.908Z,13.50
2019-04-22T12:36:38.298Z,13.20
2019-04-22T12:39:09.490Z,13.20
2019-04-22T12:41:40.055Z,13.80
2019-04-22T12:44:09.422Z,13.30
2019-04-22T12:46:38.457Z,13.50
2019-04-22T12:49:08.020Z,13.20
2019-04-22T12:51:37.042Z,12.70
2019-04-22T12:54:06.881Z,12.70
2019-04-22T12:56:35.847Z,13.30
2019-04-22T12:59:05.733Z,12.60
2019-04-22T13:01:35.117Z,12.90
2019-04-22T13:04:09.396Z,12.20
2019-04-22T13:06:35.579Z,12.00
2019-04-22T13:09:08.496Z,12.50
2019-04-22T13:11:38.883Z,12.80
2019-04-22T13:14:08.975Z,12.50
2019-04-22T13:16:38.777Z,12.00
2019-04-22T13:19:12.826Z,12.30
2019-04-22T13:21:38.476Z,12.70
2019-04-22T13:24:08.930Z,13.40
2019-04-22T13:26:38.149Z,14.40
2019-04-22T13:29:07.440Z,12.50
2019-04-22T13:31:37.021Z,13.30
2019-04-22T13:34:10.529Z,12.70
2019-04-22T13:36:40.027Z,12.90
2019-04-22T13:39:09.052Z,12.50
2019-04-22T13:41:46.375Z,12.20
2019-04-22T13:44:09.126Z,12.50
2019-04-22T13:46:38.784Z,12.70
2019-04-22T13:49:42.902Z,12.40
2019-04-22T13:52:15.558Z,12.60
2019-04-22T13:56:59.710Z,13.00
2019-04-22T13:59:24.658Z,13.50
2019-04-22T14:02:01.306Z,13.60
2019-04-22T14:04:34.690Z,13.30
2019-04-22T14:07:05.012Z,13.70
2019-04-22T14:09:34.007Z,14.00
2019-04-22T14:12:05.681Z,13.50
2019-04-22T14:14:33.835Z,12.50
2019-04-22T14:17:03.020Z,14.60
2019-04-22T14:19:32.321Z,13.80
2019-04-22T14:22:01.990Z,13.60
2019-04-22T14:24:30.980Z,13.20
2019-04-22T14:27:17.863Z,14.20
2019-04-22T14:29:31.414Z,14.30
2019-04-22T14:32:08.647Z,14.10
2019-04-22T14:34:32.123Z,13.50
2019-04-22T14:37:01.520Z,14.50
2019-04-22T14:39:30.477Z,14.10
2019-04-22T14:42:20.397Z,14.90
2019-04-22T14:47:26.563Z,15.90
2019-04-22T14:49:58.056Z,16.50
2019-04-22T14:52:27.698Z,16.00
2019-04-22T14:54:48.425Z,15.50
2019-04-22T14:57:05.244Z,14.50
2019-04-22T14:59:35.525Z,14.60
2019-04-22T15:02:05.694Z,14.60
2019-04-22T15:04:35.068Z,14.00
2019-04-22T15:07:05.186Z,14.40
2019-04-22T15:09:34.248Z,13.60
2019-04-22T15:12:14.746Z,13.20
2019-04-22T15:14:35.410Z,13.30
2019-04-22T15:17:31.211Z,13.00
2019-04-22T15:20:09.862Z,13.30
2019-04-22T15:22:38.962Z,13.50
2019-04-22T15:25:08.464Z,13.50
2019-04-22T15:27:37.462Z,13.30
2019-04-22T15:30:07.601Z,13.50
2019-04-22T15:32:36.602Z,13.20
2019-04-22T15:35:07.098Z,13.40
2019-04-22T15:37:37.270Z,13.00
2019-04-22T15:40:06.875Z,12.60
2019-04-22T15:42:40.231Z,13.60
2019-04-22T15:45:08.649Z,14.30
2019-04-22T15:47:37.848Z,14.30
2019-04-22T15:50:08.067Z,14.10
2019-04-22T15:52:43.896Z,14.10
2019-04-22T15:55:09.039Z,14.40
2019-04-22T15:57:39.717Z,14.00
2019-04-22T16:00:21.373Z,14.20
2019-04-22T16:02:41.316Z,14.10
2019-04-22T16:05:10.616Z,14.70
2019-04-22T16:07:40.016Z,15.00
2019-04-22T16:10:10.094Z,15.70
2019-04-22T16:12:49.174Z,16.00
2019-04-22T16:15:12.769Z,15.90
2019-04-22T16:17:40.810Z,15.80
2019-04-22T16:20:11.043Z,15.70
2019-04-22T16:22:59.195Z,16.10
2019-04-22T16:26:01.050Z,16.10
2019-04-22T16:28:31.266Z,16.80
2019-04-22T16:31:01.453Z,15.50
2019-04-22T16:33:31.203Z,15.90
2019-04-22T16:36:00.647Z,16.40
2019-04-22T16:38:30.902Z,16.60
2019-04-22T16:41:00.994Z,17.10
2019-04-22T16:43:30.857Z,17.50
2019-04-22T16:46:01.382Z,18.30
2019-04-22T16:48:31.500Z,17.30
2019-04-22T16:51:02.213Z,17.30
2019-04-22T16:53:31.471Z,17.80
2019-04-22T16:56:00.475Z,17.60
2019-04-22T16:58:30.509Z,17.80
2019-04-22T17:01:00.705Z,18.10
2019-04-22T17:03:48.559Z,17.60
2019-04-22T17:06:21.578Z,18.10
2019-04-22T17:08:50.939Z,18.40
2019-04-22T17:11:20.194Z,19.10
2019-04-22T17:13:50.178Z,19.10
2019-04-22T17:16:20.193Z,19.60
2019-04-22T17:18:50.090Z,20.10
2019-04-22T17:21:19.584Z,20.40
2019-04-22T17:23:49.895Z,20.50
2019-04-22T17:26:18.995Z,20.80
2019-04-22T17:28:49.224Z,21.00
2019-04-22T17:31:18.663Z,21.50
2019-04-22T17:33:48.828Z,21.90
2019-04-22T17:36:18.343Z,22.20
2019-04-22T17:38:56.282Z,22.90
2019-04-22T17:41:33.996Z,23.40
2019-04-22T17:44:13.560Z,24.00
2019-04-22T17:46:51.023Z,24.40
2019-04-22T17:49:45.633Z,25.10
2019-04-22T17:52:31.101Z,25.50
2019-04-22T17:54:48.212Z,26.10
2019-04-22T17:57:22.391Z,26.30
2019-04-22T17:59:51.889Z,26.70
2019-04-22T18:02:15.356Z,27.00
2019-04-22T18:04:40.062Z,27.30
2019-04-22T18:07:32.453Z,27.60
2019-04-22T18:12:35.499Z,27.70
2019-04-22T18:14:59.534Z,28.30
2019-04-22T18:17:32.046Z,28.10
2019-04-22T18:19:53.226Z,28.30
2019-04-22T18:22:21.669Z,28.60
2019-04-22T18:24:54.149Z,28.70
2019-04-22T18:27:41.535Z,28.70
2019-04-22T18:29:57.137Z,28.90
2019-04-22T18:32:20.505Z,29.30
2019-04-22T18:34:51.569Z,29.40
2019-04-22T18:37:24.889Z,29.60
2019-04-22T18:40:01.928Z,29.80
2019-04-22T18:42:26.798Z,30.00
2019-04-22T18:45:20.289Z,30.00
2019-04-22T18:47:29.609Z,30.20
2019-04-22T18:49:59.466Z,30.60
2019-04-22T18:53:05.156Z,31.20
2019-04-22T18:55:36.579Z,30.80
2019-04-22T18:58:06.688Z,31.50
2019-04-22T19:00:25.452Z,31.60
2019-04-22T19:03:03.037Z,31.70
2019-04-22T19:05:40.414Z,31.80
2019-04-22T19:08:26.403Z,32.00
2019-04-22T19:16:19.341Z,32.50
2019-04-22T19:18:31.901Z,32.50
2019-04-22T19:20:59.443Z,32.90
2019-04-22T19:23:24.267Z,33.60
2019-04-22T19:25:48.580Z,34.30
2019-04-22T19:28:29.417Z,36.30
2019-04-22T19:30:56.318Z,36.70
2019-04-22T19:33:28.747Z,37.40
2019-04-22T19:35:49.156Z,38.30
2019-04-22T19:38:16.804Z,38.10
2019-04-22T19:43:31.044Z,39.20
2019-04-22T19:45:58.962Z,39.30
2019-04-22T19:51:05.421Z,39.90
2019-04-22T19:53:35.106Z,40.40
2019-04-22T19:55:53.769Z,40.70
2019-04-22T19:58:32.412Z,40.90
2019-04-22T20:01:26.987Z,41.20
2019-04-22T20:04:19.799Z,41.50
2019-04-22T20:06:42.580Z,41.80
2019-04-22T20:09:13.942Z,41.80
2019-04-22T20:11:46.528Z,42.00
2019-04-22T20:14:15.009Z,42.30
2019-04-22T20:16:37.524Z,42.40
2019-04-22T20:19:19.107Z,42.50
2019-04-22T20:21:46.566Z,42.90
2019-04-22T20:24:05.457Z,43.60
2019-04-22T20:26:50.122Z,43.40
2019-04-22T20:29:22.163Z,43.80
2019-04-22T20:31:51.284Z,43.80
2019-04-22T20:34:21.901Z,44.30
2019-04-22T20:39:10.945Z,44.40
2019-04-22T20:41:43.268Z,44.40
2019-04-22T20:44:22.611Z,44.50
2019-04-22T20:46:49.015Z,44.60
2019-04-22T20:49:27.384Z,44.60
2019-04-22T20:51:58.776Z,44.60
2019-04-22T20:54:22.801Z,44.90
2019-04-22T20:56:49.251Z,44.90
2019-04-22T20:59:24.314Z,45.40
2019-04-22T21:01:55.323Z,45.50
2019-04-22T21:04:18.211Z,45.50
2019-04-22T21:06:54.336Z,45.40
2019-04-22T21:09:28.495Z,45.50
2019-04-22T21:11:52.310Z,45.70
2019-04-22T21:14:23.475Z,46.00
2019-04-22T21:17:00.680Z,46.00
2019-04-22T21:19:38.189Z,46.00
2019-04-22T21:22:03.634Z,46.10
2019-04-22T21:24:32.739Z,46.40
2019-04-22T21:27:09.198Z,46.60
2019-04-22T21:29:26.579Z,46.80
2019-04-22T21:32:01.478Z,47.20
2019-04-22T21:34:40.675Z,47.10
2019-04-22T21:37:09.951Z,47.20
2019-04-22T21:39:33.259Z,47.20
2019-04-22T21:42:06.292Z,47.30
2019-04-22T21:44:33.903Z,48.30
2019-04-22T21:47:16.009Z,47.70
2019-04-22T21:49:45.949Z,47.70
2019-04-22T21:52:11.645Z,47.80
2019-04-22T21:54:47.152Z,48.20
2019-04-22T21:57:27.860Z,48.20
2019-04-22T22:00:09.747Z,48.30
2019-04-22T22:02:35.698Z,48.50
2019-04-22T22:04:58.702Z,48.50
2019-04-22T22:07:17.217Z,48.80
2019-04-22T22:10:01.993Z,49.00
2019-04-22T22:12:39.422Z,49.10
2019-04-22T22:15:04.160Z,49.40
2019-04-22T22:17:30.762Z,49.40
2019-04-22T22:20:03.555Z,49.60
2019-04-22T22:22:50.398Z,49.60
2019-04-22T22:25:10.519Z,49.80
2019-04-22T22:27:39.331Z,49.80
2019-04-22T22:32:42.272Z,50.10
2019-04-22T22:35:12.028Z,50.30
2019-04-22T22:37:28.224Z,50.80
2019-04-22T22:39:58.035Z,50.70
2019-04-22T22:42:27.197Z,51.40
2019-04-22T22:45:03.988Z,50.90
2019-04-22T22:47:39.331Z,51.20
2019-04-22T22:50:09.029Z,51.20
2019-04-22T22:55:10.921Z,52.30
2019-04-22T22:57:44.545Z,52.10
2019-04-22T23:00:13.831Z,51.90
2019-04-22T23:03:03.711Z,52.10
2019-04-22T23:05:19.963Z,52.40
2019-04-22T23:07:50.614Z,52.70
2019-04-22T23:10:18.117Z,53.00
2019-04-22T23:12:48.516Z,53.30
2019-04-22T23:15:15.357Z,53.60
2019-04-22T23:17:30.457Z,53.70
2019-04-22T23:20:00.062Z,53.70
2019-04-22T23:22:48.708Z,54.00
2019-04-22T23:25:24.740Z,54.30
2019-04-22T23:27:46.168Z,54.40
2019-04-22T23:30:35.899Z,54.60
2019-04-22T23:33:19.150Z,54.80
2019-04-22T23:35:54.865Z,55.10
2019-04-22T23:38:35.787Z,55.00
2019-04-22T23:41:06.967Z,55.50
2019-04-22T23:43:46.443Z,55.60
2019-04-22T23:46:08.387Z,55.70
2019-04-22T23:48:31.456Z,55.90
2019-04-22T23:51:13.698Z,56.00
2019-04-22T23:54:04.325Z,56.20
2019-04-22T23:56:09.214Z,56.30
2019-04-22T23:58:52.697Z,56.60
